Terminal Aerodrome Forecast
Issued by NWS

Home | Current Version | Previous Version | Text Only | Print | Product List | Glossary On
Versions: 1 2 3 4 5 6 7 8 9 10 11 12 13 14 15 16 17 18 19 20 21 22 23
000
FTUS41 KPBZ 281700
TAFLBE
TAF
KLBE 281725Z 2818/2918 27010G20KT P6SM -SHRA OVC020
     FM281900 32012G22KT P6SM -SHRA OVC020
     FM282200 31012KT P6SM VCSH BKN035
     FM290200 30005KT P6SM BKN035=

USA.gov is the U.S. government's official web portal to all federal, state and local government web resources and services.